Time;durP1;ratioP1;P1;durP2;ratioP2;P2;SDS_P1;SDS_P2;PMS_P1;PMS_P2;Temp;Humidity;BMP_temperature;BMP_pressure;BME280_temperature;BME280_humidity;BME280_pressure;Samples;Min_cycle;Max_cycle;Signal;HPM_P1;HPM_P2
2023/01/16 00:01:55;;;;;;;;;4.25;2.00;;;;;7.36;70.90;99282.28;5078490;28;46192;-71
2023/01/16 00:04:21;;;;;;;;;3.75;2.00;;;;;7.50;70.78;99280.41;5077594;28;45532;-72
2023/01/16 00:06:47;;;;;;;;;2.75;1.25;;;;;7.25;71.03;99234.59;5074573;28;45459;-71
2023/01/16 00:09:13;;;;;;;;;1.75;1.75;;;;;7.51;70.91;99258.69;5074038;28;45387;-70
2023/01/16 00:11:38;;;;;;;;;2.25;1.00;;;;;7.41;71.00;99220.56;5074095;28;45426;-69
2023/01/16 00:14:04;;;;;;;;;3.75;1.25;;;;;7.36;71.41;99207.59;5058451;28;45493;-70
2023/01/16 00:16:29;;;;;;;;;2.50;1.50;;;;;7.41;71.41;99205.81;5078778;28;45338;-72
2023/01/16 00:18:55;;;;;;;;;2.25;1.50;;;;;7.46;71.43;99202.28;5078705;28;45446;-71
2023/01/16 00:21:25;;;;;;;;;1.00;0.00;;;;;7.42;71.29;99164.97;5076927;28;46520;-71
2023/01/16 00:23:53;;;;;;;;;2.00;1.00;;;;;7.55;71.11;99182.22;5074385;28;45467;-72
2023/01/16 00:26:18;;;;;;;;;1.25;1.00;;;;;7.52;71.31;99150.09;5073694;28;45540;-71
2023/01/16 00:28:44;;;;;;;;;2.25;1.00;;;;;7.51;71.13;99132.78;5074175;27;45624;-70
2023/01/16 00:31:11;;;;;;;;;1.00;1.00;;;;;7.53;71.31;99136.22;5073364;28;45489;-71
2023/01/16 00:33:37;;;;;;;;;1.00;1.00;;;;;7.55;70.98;99098.00;5060548;28;45473;-72
2023/01/16 00:36:03;;;;;;;;;2.00;1.00;;;;;7.52;71.64;99088.47;5077161;27;45412;-71
2023/01/16 00:38:29;;;;;;;;;3.00;1.00;;;;;7.53;71.06;99071.94;5074180;28;45578;-70
2023/01/16 00:40:58;;;;;;;;;1.50;1.00;;;;;7.51;71.49;99045.03;5058089;28;45505;-71
2023/01/16 00:43:24;;;;;;;;;2.00;1.00;;;;;7.56;71.27;99039.78;5077885;28;45484;-71
2023/01/16 00:45:50;;;;;;;;;2.00;2.00;;;;;7.51;71.29;99016.38;5077516;28;45437;-72
2023/01/16 00:48:16;;;;;;;;;1.00;0.25;;;;;7.50;71.07;99000.75;5058614;28;45561;-69
2023/01/16 00:50:42;;;;;;;;;1.00;1.00;;;;;7.56;71.18;98990.28;5073142;28;45946;-71
2023/01/16 00:53:07;;;;;;;;;6.00;1.00;;;;;7.49;71.28;98952.16;5054929;28;45631;-71
2023/01/16 00:55:36;;;;;;;;;1.00;1.00;;;;;7.51;71.05;98956.47;5073462;27;45506;-71
2023/01/16 00:58:02;;;;;;;;;2.75;1.00;;;;;7.39;70.83;98920.19;5073732;28;45776;-71
2023/01/16 01:00:28;;;;;;;;;2.75;1.50;;;;;7.56;71.21;98948.59;5076252;28;45703;-71
2023/01/16 01:02:53;;;;;;;;;1.50;1.00;;;;;7.54;71.14;98909.53;5076666;28;45690;-69
2023/01/16 01:05:19;;;;;;;;;2.50;1.00;;;;;7.50;71.07;98886.16;5073189;28;46144;-71
2023/01/16 01:07:45;;;;;;;;;2.00;0.75;;;;;7.47;71.04;98874.03;5073879;28;45806;-72
2023/01/16 01:10:10;;;;;;;;;0.00;0.00;;;;;7.56;70.87;98873.91;5072817;28;45838;-71
2023/01/16 01:12:36;;;;;;;;;2.00;0.50;;;;;7.44;70.72;98845.44;5072996;28;45390;-71
2023/01/16 01:15:02;;;;;;;;;1.25;1.00;;;;;7.52;70.53;98837.50;5055143;28;45930;-70
2023/01/16 01:17:28;;;;;;;;;0.25;0.25;;;;;7.55;70.83;98830.50;5074168;28;45398;-70
2023/01/16 01:19:54;;;;;;;;;3.25;1.00;;;;;7.43;71.01;98808.13;5076704;28;46502;-70
2023/01/16 01:22:20;;;;;;;;;2.25;1.00;;;;;7.53;71.21;98805.38;5075907;28;45465;-71
2023/01/16 01:24:49;;;;;;;;;0.50;0.00;;;;;7.42;70.99;98767.31;5051120;28;45372;-72
2023/01/16 01:27:16;;;;;;;;;4.50;2.00;;;;;7.52;70.95;98757.63;5058248;28;45319;-72
2023/01/16 01:29:42;;;;;;;;;1.25;1.00;;;;;7.48;70.71;98736.88;5065301;28;45635;-71
2023/01/16 01:32:08;;;;;;;;;2.00;0.00;;;;;7.54;71.09;98748.00;5062103;28;45720;-71
2023/01/16 01:34:34;;;;;;;;;2.00;0.00;;;;;7.38;71.11;98691.84;5074626;28;45374;-70
2023/01/16 01:37:05;;;;;;;;;2.75;1.50;;;;;7.55;70.87;98689.81;5075896;28;45441;-71
2023/01/16 01:39:31;;;;;;;;;4.00;1.00;;;;;7.54;70.60;98680.28;5058567;27;46489;-72
2023/01/16 01:45:00;;;;;;;;;0.50;0.25;;;;;7.51;71.44;98641.25;5076668;28;45832;-73
2023/01/16 01:47:39;;;;;;;;;1.25;0.00;;;;;7.34;72.11;98627.72;5078844;27;45778;-71
2023/01/16 01:50:16;;;;;;;;;1.00;1.00;;;;;7.45;72.22;98630.97;5062773;28;45567;-70
2023/01/16 01:52:42;;;;;;;;;0.25;0.00;;;;;7.51;72.54;98603.94;5058039;28;45465;-72
2023/01/16 01:55:12;;;;;;;;;0.75;0.00;;;;;7.40;72.84;98618.03;5059297;28;45390;-71
2023/01/16 01:57:42;;;;;;;;;2.75;1.25;;;;;7.44;72.70;98578.00;5070462;28;45449;-71
2023/01/16 02:00:30;;;;;;;;;0.25;0.00;;;;;7.37;72.75;98552.13;5077669;27;45401;-71
2023/01/16 02:03:06;;;;;;;;;0.25;0.25;;;;;7.39;73.45;98542.53;5080834;27;45841;-70
2023/01/16 02:05:44;;;;;;;;;1.00;0.25;;;;;7.26;73.49;98528.03;5057817;28;45465;-70
2023/01/16 02:08:13;;;;;;;;;0.50;0.50;;;;;7.33;73.84;98524.41;5058465;28;45481;-69
2023/01/16 02:10:57;;;;;;;;;3.50;0.50;;;;;7.36;74.16;98520.03;5075545;27;46691;-72
2023/01/16 02:13:23;;;;;;;;;2.75;0.00;;;;;7.35;75.72;98496.59;5075564;27;45650;-71
2023/01/16 02:21:44;;;;;;;;;3.00;1.00;;;;;7.31;76.55;98464.59;5078751;28;45837;-71
2023/01/16 02:24:28;;;;;;;;;4.00;1.00;;;;;7.27;76.77;98449.06;5039060;28;45582;-71
2023/01/16 02:27:23;;;;;;;;;4.00;0.50;;;;;7.16;77.46;98434.50;5078433;28;45421;-72
2023/01/16 02:30:26;;;;;;;;;1.00;0.25;;;;;7.09;77.79;98408.63;5058126;28;45532;-70
2023/01/16 02:33:06;;;;;;;;;1.00;1.00;;;;;7.04;78.26;98382.69;5061877;28;45907;-73
2023/01/16 02:35:41;;;;;;;;;1.00;1.00;;;;;7.03;78.26;98394.00;5057820;28;45919;-73
2023/01/16 02:38:19;;;;;;;;;1.75;1.00;;;;;6.95;78.20;98351.66;5063954;28;45539;-73
2023/01/16 02:41:06;;;;;;;;;1.50;1.00;;;;;7.00;78.49;98374.13;5054826;28;45962;-73
2023/01/16 02:44:02;;;;;;;;;1.00;1.00;;;;;6.89;78.89;98355.25;5038706;28;47131;-73
2023/01/16 02:46:52;;;;;;;;;0.75;0.00;;;;;6.91;78.70;98324.00;5055262;28;46776;-71
2023/01/16 02:49:28;;;;;;;;;1.25;0.25;;;;;6.92;78.67;98326.56;5056272;28;45532;-71
2023/01/16 02:52:36;;;;;;;;;0.25;0.25;;;;;6.89;78.48;98308.44;5058369;28;45454;-71
2023/01/16 02:55:20;;;;;;;;;0.25;0.00;;;;;6.84;78.54;98297.25;5049544;28;45862;-71
2023/01/16 02:57:56;;;;;;;;;0.00;0.00;;;;;6.75;78.48;98258.44;5055319;28;45283;-71
2023/01/16 03:00:22;;;;;;;;;0.00;0.00;;;;;6.89;78.75;98263.34;5057869;28;45427;-71
2023/01/16 03:02:48;;;;;;;;;0.00;0.00;;;;;6.74;78.88;98247.19;5059794;28;45465;-71
2023/01/16 03:05:18;;;;;;;;;1.75;0.00;;;;;6.95;78.78;98263.19;5059051;28;46232;-71
2023/01/16 03:08:26;;;;;;;;;1.00;0.00;;;;;6.94;78.32;98251.91;5055907;28;45403;-71
2023/01/16 03:11:22;;;;;;;;;0.25;0.25;;;;;6.89;79.13;98264.19;5057454;28;45498;-70
2023/01/16 03:13:56;;;;;;;;;2.25;0.50;;;;;6.63;78.77;98225.75;5059515;28;45496;-71
2023/01/16 03:16:45;;;;;;;;;0.75;0.00;;;;;6.73;79.92;98229.84;5059218;28;45570;-72
2023/01/16 03:19:34;;;;;;;;;0.00;0.00;;;;;6.82;79.18;98212.34;5059279;28;45426;-71
2023/01/16 03:22:07;;;;;;;;;0.00;0.00;;;;;6.83;79.13;98209.69;5016976;28;45464;-71
2023/01/16 03:25:02;;;;;;;;;0.00;0.00;;;;;6.84;79.58;98195.78;5055268;28;45669;-72
2023/01/16 03:27:37;;;;;;;;;1.00;1.00;;;;;6.81;79.09;98185.47;5057523;28;45437;-72
2023/01/16 03:30:08;;;;;;;;;0.00;0.00;;;;;6.71;79.41;98174.41;5059042;28;45508;-71
2023/01/16 03:32:40;;;;;;;;;2.00;0.00;;;;;6.64;80.28;98188.44;5062060;27;45446;-71
2023/01/16 03:35:13;;;;;;;;;0.00;0.00;;;;;6.70;80.33;98190.06;5079383;28;46099;-71
2023/01/16 03:37:47;;;;;;;;;1.00;0.00;;;;;6.71;79.73;98184.81;5059287;28;46887;-71
2023/01/16 03:40:20;;;;;;;;;0.00;0.00;;;;;6.40;79.75;98126.59;5074929;27;45876;-71
2023/01/16 03:42:59;;;;;;;;;0.00;0.00;;;;;6.79;79.70;98189.84;5074755;27;45565;-72
2023/01/16 03:45:38;;;;;;;;;2.50;0.00;;;;;6.78;79.67;98157.75;5075433;28;45712;-71
2023/01/16 03:48:20;;;;;;;;;0.00;0.00;;;;;6.70;79.83;98132.84;5077236;27;45458;-71
2023/01/16 03:51:04;;;;;;;;;0.00;0.00;;;;;6.52;79.79;98100.31;5075041;27;45401;-70
2023/01/16 03:53:38;;;;;;;;;0.00;0.00;;;;;6.82;79.44;98157.69;5044394;27;45484;-71
2023/01/16 03:56:21;;;;;;;;;0.00;0.00;;;;;6.77;79.32;98135.25;5074526;27;45402;-71
2023/01/16 03:58:48;;;;;;;;;0.00;0.00;;;;;6.74;79.79;98150.94;5074541;27;45808;-71
2023/01/16 04:01:38;;;;;;;;;0.00;0.00;;;;;6.82;79.05;98132.53;5058904;28;45400;-71
2023/01/16 04:04:18;;;;;;;;;0.00;0.00;;;;;6.59;79.39;98079.31;5078138;28;45891;-72
2023/01/16 04:06:53;;;;;;;;;1.00;0.00;;;;;6.77;78.92;98105.78;5078678;27;45438;-72
2023/01/16 04:09:38;;;;;;;;;0.00;0.00;;;;;6.59;77.98;98065.44;5078793;27;46676;-71
2023/01/16 04:12:06;;;;;;;;;0.00;0.00;;;;;6.74;78.62;98096.31;5074716;28;45414;-72
2023/01/16 04:14:34;;;;;;;;;0.00;0.00;;;;;6.75;78.24;98074.59;5075005;27;45681;-71
2023/01/16 04:17:02;;;;;;;;;0.00;0.00;;;;;6.74;78.25;98061.63;5077191;28;45453;-71
2023/01/16 04:19:31;;;;;;;;;0.50;0.00;;;;;6.67;78.43;98052.25;5074420;27;46429;-71
2023/01/16 04:21:57;;;;;;;;;1.00;0.00;;;;;6.38;77.81;98007.03;5056052;28;45773;-71
2023/01/16 04:24:23;;;;;;;;;0.50;0.00;;;;;6.59;78.20;98029.03;5052390;28;45437;-72
2023/01/16 04:26:51;;;;;;;;;0.00;0.00;;;;;6.57;78.12;98034.31;5070399;28;45341;-71
2023/01/16 04:29:17;;;;;;;;;0.00;0.00;;;;;6.58;77.92;98027.34;5074922;28;46154;-71
2023/01/16 04:31:42;;;;;;;;;0.00;0.00;;;;;6.54;77.43;98010.09;5056070;28;45823;-71
2023/01/16 04:34:08;;;;;;;;;0.00;0.00;;;;;6.63;77.59;98015.06;5074120;28;45640;-72
2023/01/16 04:36:33;;;;;;;;;0.00;0.00;;;;;6.59;76.94;97993.47;5056321;28;45629;-71
2023/01/16 04:39:02;;;;;;;;;0.00;0.00;;;;;6.52;77.36;97991.09;5073840;28;46046;-71
2023/01/16 04:41:37;;;;;;;;;0.00;0.00;;;;;6.58;77.26;97997.00;5059028;27;45442;-71
2023/01/16 04:44:04;;;;;;;;;0.00;0.00;;;;;6.59;77.15;97969.22;5056423;28;45429;-71
2023/01/16 04:46:34;;;;;;;;;0.00;0.00;;;;;6.55;77.70;97971.06;5076112;28;45481;-72
2023/01/16 04:49:03;;;;;;;;;0.00;0.00;;;;;6.58;77.69;97964.94;5075373;28;45783;-71
2023/01/16 04:51:32;;;;;;;;;0.00;0.00;;;;;6.56;77.84;97943.31;5074108;28;45470;-71
2023/01/16 04:53:57;;;;;;;;;1.00;0.00;;;;;6.25;77.50;97866.13;5073721;28;45445;-71
2023/01/16 04:56:23;;;;;;;;;0.00;0.00;;;;;6.55;77.98;97895.66;5073734;28;45394;-71
2023/01/16 04:58:50;;;;;;;;;0.00;0.00;;;;;6.59;77.93;97893.81;5075533;28;46525;-71
2023/01/16 05:01:17;;;;;;;;;0.00;0.00;;;;;6.48;77.93;97854.28;5077926;27;45449;-71
2023/01/16 05:03:49;;;;;;;;;0.00;0.00;;;;;6.83;77.93;97881.03;5078407;28;45341;-71
2023/01/16 05:06:15;;;;;;;;;0.00;0.00;;;;;6.55;77.89;97829.81;5077986;27;45422;-72
2023/01/16 05:08:40;;;;;;;;;0.00;0.00;;;;;6.80;78.55;97874.16;5055526;28;47808;-71
2023/01/16 05:11:06;;;;;;;;;1.00;0.00;;;;;6.82;78.97;97855.91;5065880;28;45468;-71
2023/01/16 05:13:32;;;;;;;;;0.00;0.00;;;;;6.61;78.94;97810.56;5074077;28;45752;-71
2023/01/16 05:15:58;;;;;;;;;0.00;0.00;;;;;6.79;78.62;97821.28;5052249;28;45708;-71
2023/01/16 05:18:29;;;;;;;;;1.00;0.00;;;;;6.81;79.61;97805.63;5069547;28;46510;-71
2023/01/16 05:20:55;;;;;;;;;1.00;0.00;;;;;6.94;79.54;97803.50;5058160;28;45463;-71
2023/01/16 05:23:21;;;;;;;;;0.00;0.00;;;;;6.92;78.97;97798.34;5073610;28;45670;-70
2023/01/16 05:25:48;;;;;;;;;0.00;0.00;;;;;6.56;79.06;97735.28;5075178;27;46004;-70
2023/01/16 05:28:20;;;;;;;;;1.25;0.00;;;;;6.89;78.57;97766.38;5077968;28;45463;-70
2023/01/16 05:30:48;;;;;;;;;0.00;0.00;;;;;6.89;78.82;97758.56;5058793;28;45340;-71
2023/01/16 05:33:14;;;;;;;;;2.75;0.00;;;;;7.00;78.40;97772.13;5061822;27;45499;-70
2023/01/16 05:35:40;;;;;;;;;2.00;0.00;;;;;7.06;78.19;97765.84;5055097;28;45577;-71
2023/01/16 05:38:05;;;;;;;;;1.00;0.00;;;;;7.22;77.90;97767.91;5077407;28;46337;-70
2023/01/16 05:40:31;;;;;;;;;0.00;0.00;;;;;7.02;77.64;97715.63;5077570;28;45610;-70
2023/01/16 05:42:57;;;;;;;;;0.00;0.00;;;;;6.66;78.33;97652.63;5078006;27;45535;-71
2023/01/16 05:45:23;;;;;;;;;0.00;0.00;;;;;7.09;77.61;97724.94;5077844;27;45401;-71
2023/01/16 05:47:48;;;;;;;;;0.00;0.00;;;;;7.31;77.32;97753.75;5073682;28;45861;-72
2023/01/16 05:50:21;;;;;;;;;0.50;0.00;;;;;7.27;76.31;97743.50;5074095;28;45436;-71
2023/01/16 05:52:50;;;;;;;;;2.25;0.00;;;;;7.17;76.13;97720.38;5076558;27;45387;-71
2023/01/16 05:55:17;;;;;;;;;0.00;0.00;;;;;7.12;76.22;97719.66;5055490;28;45523;-71
2023/01/16 05:57:45;;;;;;;;;0.00;0.00;;;;;7.36;76.04;97736.22;5073685;28;46149;-72
2023/01/16 06:00:11;;;;;;;;;0.50;0.00;;;;;7.31;75.87;97714.72;5072917;28;45512;-71
2023/01/16 06:02:40;;;;;;;;;0.50;0.00;;;;;7.40;75.92;97701.38;5076126;28;45576;-71
2023/01/16 06:05:06;;;;;;;;;2.00;0.25;;;;;7.39;75.25;97715.28;5073068;28;45580;-71
2023/01/16 06:07:32;;;;;;;;;2.00;0.00;;;;;7.22;75.56;97688.97;5074413;28;45605;-71
2023/01/16 06:09:58;;;;;;;;;0.00;0.00;;;;;7.03;75.58;97628.88;5077307;28;45268;-71
2023/01/16 06:12:24;;;;;;;;;1.25;0.00;;;;;7.14;75.54;97655.41;5076791;28;45559;-74
2023/01/16 06:14:50;;;;;;;;;1.75;0.00;;;;;7.36;75.76;97678.94;5077426;27;45498;-71
2023/01/16 06:17:19;;;;;;;;;6.00;0.25;;;;;7.03;75.41;97634.09;5076861;28;46216;-71
2023/01/16 06:19:46;;;;;;;;;0.00;0.00;;;;;7.08;74.93;97645.19;5072939;27;45742;-72
2023/01/16 06:22:12;;;;;;;;;0.75;0.00;;;;;7.14;74.62;97631.97;5073641;28;45401;-72
2023/01/16 06:24:38;;;;;;;;;1.00;0.25;;;;;7.36;74.39;97671.16;5076964;28;45556;-71
2023/01/16 06:27:03;;;;;;;;;0.50;0.50;;;;;7.27;74.16;97650.63;5073936;28;45597;-71
2023/01/16 06:29:33;;;;;;;;;1.25;0.00;;;;;7.46;73.92;97645.63;5076189;28;45477;-71
2023/01/16 06:31:58;;;;;;;;;0.00;0.00;;;;;7.44;73.45;97648.28;5067977;28;45512;-72
2023/01/16 06:34:24;;;;;;;;;0.25;0.00;;;;;7.38;73.66;97638.09;5060299;28;45587;-71
2023/01/16 06:36:49;;;;;;;;;1.00;0.00;;;;;7.44;74.24;97661.28;5078159;28;46019;-71
2023/01/16 06:39:16;;;;;;;;;1.50;0.00;;;;;7.45;73.61;97638.75;5075663;28;45474;-71
2023/01/16 06:41:42;;;;;;;;;1.00;0.75;;;;;6.86;73.30;97555.72;5075547;28;45831;-71
2023/01/16 06:44:07;;;;;;;;;2.25;0.00;;;;;7.42;74.16;97631.00;5075546;27;45528;-71
2023/01/16 06:46:34;;;;;;;;;0.75;0.00;;;;;7.36;73.06;97628.63;5075393;28;45852;-71
2023/01/16 06:49:05;;;;;;;;;1.00;1.00;;;;;7.04;73.52;97552.50;5075769;27;45368;-71
2023/01/16 06:51:31;;;;;;;;;2.00;0.25;;;;;7.38;73.32;97626.81;5075632;27;45760;-71
2023/01/16 06:53:57;;;;;;;;;1.00;0.00;;;;;7.07;73.83;97567.16;5075776;28;45572;-71
2023/01/16 06:56:24;;;;;;;;;1.00;0.75;;;;;7.42;73.32;97607.56;5078899;27;46120;-71
2023/01/16 06:58:49;;;;;;;;;0.00;0.00;;;;;7.36;73.23;97589.59;5079878;27;45761;-72
2023/01/16 07:01:16;;;;;;;;;1.00;0.00;;;;;7.46;73.60;97597.91;5079036;28;45363;-71
2023/01/16 07:03:42;;;;;;;;;0.00;0.00;;;;;7.03;73.03;97524.78;5060151;28;45538;-71
2023/01/16 07:06:07;;;;;;;;;0.50;0.50;;;;;7.22;72.84;97527.59;5076071;28;46381;-72
2023/01/16 07:08:33;;;;;;;;;3.00;1.00;;;;;7.46;72.74;97572.72;5078480;27;45321;-72
2023/01/16 07:11:00;;;;;;;;;0.25;0.00;;;;;7.19;73.00;97531.16;5080716;28;45386;-70
2023/01/16 07:13:28;;;;;;;;;0.00;0.00;;;;;7.38;73.39;97549.56;5062171;28;45250;-71
2023/01/16 07:24:19;;;;;;;;;2.00;0.00;;;;;7.13;74.82;97512.31;5067431;28;45363;-73
2023/01/16 07:26:50;;;;;;;;;0.00;0.00;;;;;7.18;75.92;97526.84;5059323;28;45477;-71
2023/01/16 07:29:16;;;;;;;;;1.00;1.00;;;;;6.86;75.28;97446.47;5075301;28;45613;-72
2023/01/16 07:31:43;;;;;;;;;3.75;1.00;;;;;7.22;75.25;97501.56;5067823;28;45465;-72
2023/01/16 07:34:08;;;;;;;;;1.00;1.00;;;;;7.34;75.46;97492.47;5070936;27;45399;-72
2023/01/16 07:36:34;;;;;;;;;0.00;0.00;;;;;7.30;75.15;97499.50;5075080;28;46104;-72
2023/01/16 07:39:00;;;;;;;;;0.00;0.00;;;;;7.16;74.99;97460.97;5075016;27;45384;-71
2023/01/16 07:41:26;;;;;;;;;2.00;0.00;;;;;7.18;75.36;97456.56;5075224;27;45508;-71
2023/01/16 07:43:51;;;;;;;;;0.25;0.00;;;;;7.26;75.50;97478.84;5075369;27;45382;-71
2023/01/16 07:46:20;;;;;;;;;0.25;0.00;;;;;7.00;75.78;97433.84;5075592;28;45523;-72
2023/01/16 07:48:46;;;;;;;;;2.25;0.00;;;;;7.17;75.85;97473.09;5075326;27;45497;-72
2023/01/16 07:51:11;;;;;;;;;0.00;0.00;;;;;6.86;75.84;97397.03;5075613;28;45565;-72
2023/01/16 07:53:37;;;;;;;;;0.00;0.00;;;;;6.98;76.23;97407.88;5079341;28;45497;-73
2023/01/16 07:56:03;;;;;;;;;1.00;0.75;;;;;6.91;76.37;97419.41;5076552;27;45709;-72
2023/01/16 07:58:29;;;;;;;;;0.50;0.00;;;;;7.13;76.08;97434.22;5074435;28;45370;-72
2023/01/16 08:00:56;;;;;;;;;0.00;0.00;;;;;6.51;75.56;97331.56;5074771;28;45315;-72
2023/01/16 08:03:23;;;;;;;;;0.00;0.00;;;;;6.74;75.79;97362.78;5074801;27;45723;-71
2023/01/16 08:05:50;;;;;;;;;2.00;0.00;;;;;6.89;75.39;97365.72;5056491;28;46916;-71
2023/01/16 08:08:16;;;;;;;;;1.00;0.00;;;;;7.15;75.95;97404.63;5075799;28;45556;-71
2023/01/16 08:10:42;;;;;;;;;1.00;0.00;;;;;7.18;76.17;97408.88;5079052;28;46123;-71
2023/01/16 08:13:08;;;;;;;;;0.00;0.00;;;;;7.04;76.08;97365.13;5076237;28;45312;-72
2023/01/16 08:15:33;;;;;;;;;1.00;0.00;;;;;7.18;75.76;97393.25;5074461;28;45369;-71
2023/01/16 08:18:02;;;;;;;;;0.00;0.00;;;;;7.15;76.04;97385.56;5077972;27;45465;-71
2023/01/16 08:20:28;;;;;;;;;0.00;0.00;;;;;7.07;76.21;97351.16;5077483;28;45490;-71
2023/01/16 08:22:56;;;;;;;;;0.50;0.50;;;;;7.07;76.49;97353.78;5074592;28;45767;-72
2023/01/16 08:25:23;;;;;;;;;1.00;0.00;;;;;7.19;76.11;97363.72;5074144;27;46087;-71
2023/01/16 08:27:48;;;;;;;;;1.00;0.50;;;;;6.92;76.14;97310.97;5073604;28;45502;-71
2023/01/16 08:30:16;;;;;;;;;2.50;0.00;;;;;6.89;75.53;97296.34;5074190;28;45634;-72
2023/01/16 08:32:42;;;;;;;;;0.00;0.00;;;;;7.19;74.68;97355.94;5060478;28;45543;-72
2023/01/16 08:35:08;;;;;;;;;0.00;0.00;;;;;6.84;74.84;97294.81;5078286;27;45567;-71
2023/01/16 08:37:34;;;;;;;;;0.00;0.00;;;;;7.08;74.81;97327.69;5077946;28;45417;-71
2023/01/16 08:40:00;;;;;;;;;0.25;0.00;;;;;7.23;74.85;97360.09;5078172;28;45367;-72
2023/01/16 08:53:27;;;;;;;;;1.00;0.00;;;;;6.97;71.29;97337.66;5073816;28;45291;-71
2023/01/16 08:55:52;;;;;;;;;0.00;0.00;;;;;6.52;71.67;97278.66;5073335;28;45473;-72
2023/01/16 08:58:20;;;;;;;;;0.00;0.00;;;;;6.83;73.63;97325.16;5073651;28;45356;-72
2023/01/16 09:00:47;;;;;;;;;0.00;0.00;;;;;7.04;71.40;97354.72;5073958;28;45403;-71
2023/01/16 09:03:14;;;;;;;;;0.00;0.00;;;;;7.01;70.89;97334.88;5055369;28;45405;-73
2023/01/16 09:05:39;;;;;;;;;0.00;0.00;;;;;6.88;71.04;97330.19;5073722;28;45597;-70
2023/01/16 09:08:05;;;;;;;;;0.00;0.00;;;;;6.76;70.76;97329.78;5058470;28;45484;-72
2023/01/16 09:10:31;;;;;;;;;0.00;0.00;;;;;6.87;70.96;97351.94;5073696;28;45468;-70
2023/01/16 09:15:40;;;;;;;;;0.00;0.00;;;;;6.94;70.46;97358.59;5075627;28;45844;-70
2023/01/16 09:18:06;;;;;;;;;6.00;3.00;;;;;7.05;71.04;97371.19;5074032;28;45385;-70
2023/01/16 09:20:32;;;;;;;;;0.75;0.75;;;;;6.94;70.54;97358.59;5073044;27;45635;-72
2023/01/16 09:23:03;;;;;;;;;9.00;6.00;;;;;6.96;70.83;97381.03;5074536;28;45300;-70
2023/01/16 09:25:33;;;;;;;;;2.00;2.00;;;;;6.98;70.64;97391.41;5059250;28;46234;-72
2023/01/16 09:27:59;;;;;;;;;0.00;0.00;;;;;7.02;70.78;97408.59;5056902;28;45368;-72
2023/01/16 09:30:27;;;;;;;;;0.00;0.00;;;;;6.84;70.59;97380.66;5073526;27;45288;-74
2023/01/16 09:32:52;;;;;;;;;0.00;0.00;;;;;7.04;70.42;97426.75;5059406;28;46028;-71
2023/01/16 09:35:18;;;;;;;;;1.00;0.00;;;;;6.82;71.83;97404.13;5073572;28;46189;-72
2023/01/16 09:37:45;;;;;;;;;0.00;0.00;;;;;7.08;71.27;97442.19;5073443;28;45500;-71
2023/01/16 09:40:17;;;;;;;;;0.00;0.00;;;;;7.06;71.23;97437.97;5064480;28;45688;-71
2023/01/16 09:45:55;;;;;;;;;0.00;0.00;;;;;6.77;71.03;97422.50;5068986;28;45714;-72
2023/01/16 09:48:32;;;;;;;;;0.00;0.00;;;;;6.85;70.73;97440.41;5072426;28;45532;-72
2023/01/16 09:51:05;;;;;;;;;2.00;0.00;;;;;6.83;71.16;97463.03;5067862;28;45475;-73
2023/01/16 09:59:45;;;;;;;;;0.00;0.00;;;;;7.08;71.62;97516.81;5070769;28;45438;-75
2023/01/16 10:02:34;;;;;;;;;0.00;0.00;;;;;7.48;70.53;97518.00;5049110;28;45356;-74
2023/01/16 10:05:04;;;;;;;;;0.00;0.00;;;;;8.24;68.95;97504.59;5052724;28;45359;-72
2023/01/16 10:07:48;;;;;;;;;1.75;0.00;;;;;9.34;66.06;97495.63;5074193;27;46137;-75
2023/01/16 10:10:36;;;;;;;;;0.00;0.00;;;;;9.18;65.46;97524.19;5060423;28;45363;-72
2023/01/16 10:13:05;;;;;;;;;1.00;0.50;;;;;8.96;66.16;97555.59;5078798;27;45487;-72
2023/01/16 10:16:12;;;;;;;;;0.25;0.25;;;;;8.60;66.60;97568.41;5059132;28;45549;-73
2023/01/16 10:19:05;;;;;;;;;0.00;0.00;;;;;8.40;67.35;97590.94;5075749;28;45564;-73
2023/01/16 10:22:09;;;;;;;;;0.50;0.00;;;;;8.18;68.10;97598.69;5066825;28;45953;-73
2023/01/16 10:25:16;;;;;;;;;0.00;0.00;;;;;7.74;69.03;97564.75;5071540;28;45641;-73
2023/01/16 10:27:50;;;;;;;;;0.75;0.75;;;;;7.72;70.27;97591.78;5070914;28;45377;-74
2023/01/16 10:30:25;;;;;;;;;0.00;0.00;;;;;7.72;70.63;97621.25;5059154;28;46631;-74
2023/01/16 10:33:10;;;;;;;;;0.75;0.75;;;;;7.62;71.98;97623.34;5073327;28;45371;-73
2023/01/16 10:35:43;;;;;;;;;1.00;1.00;;;;;7.59;72.33;97646.91;5067189;27;45476;-72
2023/01/16 10:38:43;;;;;;;;;2.00;1.00;;;;;7.43;72.96;97630.97;5050762;28;45573;-72
2023/01/16 10:49:37;;;;;;;;;0.00;0.00;;;;;7.46;72.37;97691.66;5069866;28;45292;-72
2023/01/16 10:52:05;;;;;;;;;2.00;0.25;;;;;7.38;71.26;97711.00;5075205;27;45619;-72
2023/01/16 10:54:31;;;;;;;;;0.00;0.00;;;;;7.08;70.91;97646.94;5074606;28;45482;-71
2023/01/16 10:57:03;;;;;;;;;0.25;0.00;;;;;7.44;70.66;97733.38;5071581;27;45427;-71
2023/01/16 10:59:34;;;;;;;;;0.50;0.50;;;;;7.30;70.47;97712.16;5046920;28;45416;-71
2023/01/16 11:02:14;;;;;;;;;0.00;0.00;;;;;7.47;70.12;97750.63;5074846;27;45537;-71
2023/01/16 11:04:46;;;;;;;;;1.00;0.00;;;;;7.44;69.41;97775.03;5070372;27;45707;-72
2023/01/16 11:07:18;;;;;;;;;0.00;0.00;;;;;7.29;69.87;97744.31;5059031;28;45571;-71
2023/01/16 11:09:45;;;;;;;;;0.00;0.00;;;;;7.30;69.31;97754.66;5067571;28;45397;-72
2023/01/16 11:20:50;;;;;;;;;0.00;0.00;;;;;7.38;69.86;97809.06;5075733;28;45470;-71
2023/01/16 11:23:19;;;;;;;;;1.50;0.00;;;;;7.44;69.91;97842.75;5072506;28;45486;-71
2023/01/16 11:25:48;;;;;;;;;0.00;0.00;;;;;7.26;69.82;97807.72;5076664;27;45497;-72
2023/01/16 11:28:23;;;;;;;;;0.25;0.00;;;;;7.40;70.01;97847.22;5059461;28;45588;-72
2023/01/16 11:31:05;;;;;;;;;1.50;0.00;;;;;7.29;70.28;97819.81;5058203;28;45408;-73
2023/01/16 11:33:44;;;;;;;;;0.00;0.00;;;;;7.23;70.31;97820.81;5061937;27;46116;-71
2023/01/16 11:36:15;;;;;;;;;0.50;0.00;;;;;7.50;70.32;97872.94;5062892;28;45490;-72
2023/01/16 11:38:48;;;;;;;;;1.00;0.00;;;;;7.55;70.47;97853.69;5053126;28;45499;-72
2023/01/16 11:41:28;;;;;;;;;0.00;0.00;;;;;6.76;70.38;97743.34;5073857;27;45506;-73
2023/01/16 11:46:59;;;;;;;;;0.50;0.25;;;;;7.64;70.15;97894.22;5059628;28;45342;-72
2023/01/16 11:49:38;;;;;;;;;0.00;0.00;;;;;7.72;70.09;97905.22;5057287;28;45378;-72
2023/01/16 11:52:04;;;;;;;;;0.00;0.00;;;;;7.59;69.82;97875.25;5055167;28;45856;-71
2023/01/16 11:54:34;;;;;;;;;0.00;0.00;;;;;7.65;69.94;97894.16;5053570;28;46005;-71
2023/01/16 11:57:26;;;;;;;;;0.00;0.00;;;;;7.69;68.69;97901.84;5054120;28;45402;-71
2023/01/16 12:00:14;;;;;;;;;2.00;1.75;;;;;7.77;71.83;97931.16;5043889;28;45800;-74
2023/01/16 12:03:17;;;;;;;;;0.00;0.00;;;;;7.99;70.07;97946.94;5061906;28;45304;-68
2023/01/16 12:05:59;;;;;;;;;0.50;0.50;;;;;8.03;69.13;97949.41;5054757;28;46630;-77
2023/01/16 12:08:56;;;;;;;;;0.00;0.00;;;;;8.09;69.00;97958.75;5059173;28;45513;-75
2023/01/16 12:11:25;;;;;;;;;0.50;0.50;;;;;8.19;68.08;97967.16;5091953;27;45296;-76
2023/01/16 12:14:37;;;;;;;;;0.00;0.00;;;;;8.17;67.67;97964.59;5039083;28;45323;-76
2023/01/16 12:17:17;;;;;;;;;3.00;0.50;;;;;8.24;67.84;97981.75;5060612;28;45320;-76
2023/01/16 12:20:01;;;;;;;;;2.50;0.50;;;;;8.18;68.17;98001.94;5074858;28;45385;-79
2023/01/16 12:22:41;;;;;;;;;0.75;0.75;;;;;8.18;68.41;98008.00;5074100;28;45467;-78
2023/01/16 12:25:28;;;;;;;;;1.25;1.25;;;;;8.16;68.63;98014.19;5073791;28;45482;-73
2023/01/16 12:28:17;;;;;;;;;1.00;1.00;;;;;8.16;68.57;98006.34;5064723;28;45676;-74
2023/01/16 12:31:34;;;;;;;;;0.75;0.00;;;;;8.15;68.11;98026.38;5059822;28;45681;-73
2023/01/16 12:34:26;;;;;;;;;0.50;0.50;;;;;8.14;68.21;98029.88;5050578;28;45786;-78
2023/01/16 12:37:01;;;;;;;;;0.25;0.25;;;;;8.00;68.77;98032.06;5078860;28;45413;-75
2023/01/16 12:39:48;;;;;;;;;4.00;1.25;;;;;8.04;68.75;98055.41;5060344;28;47851;-72
2023/01/16 12:45:42;;;;;;;;;0.25;0.25;;;;;7.92;69.13;98065.31;5064324;28;45845;-71
2023/01/16 12:48:38;;;;;;;;;0.00;0.00;;;;;7.86;69.51;98071.56;5075865;28;45330;-71
2023/01/16 12:51:22;;;;;;;;;3.00;1.00;;;;;7.81;69.65;98073.47;5063543;28;45513;-70
2023/01/16 12:54:13;;;;;;;;;2.25;2.00;;;;;7.75;69.41;98100.53;5074422;27;45374;-71
2023/01/16 12:56:47;;;;;;;;;28.75;20.50;;;;;7.75;70.72;98110.97;5073672;28;45910;-70
2023/01/16 12:59:39;;;;;;;;;2.00;2.00;;;;;7.71;69.01;98108.47;5074760;27;45335;-73
2023/01/16 13:02:44;;;;;;;;;3.00;2.00;;;;;7.69;68.57;98118.09;5059165;28;46636;-70
2023/01/16 13:05:18;;;;;;;;;3.00;1.25;;;;;7.70;67.89;98125.88;5054788;28;45490;-71
2023/01/16 13:08:06;;;;;;;;;12.25;9.50;;;;;7.70;69.98;98128.47;5073385;28;45576;-73
2023/01/16 13:13:28;;;;;;;;;2.50;2.00;;;;;7.84;66.71;98148.94;5057803;28;45330;-71